createdAt,value
2023-05-06T09:49:23.454Z,1.60
2023-05-06T09:51:51.690Z,1.30
2023-05-06T09:54:18.388Z,2.25
2023-05-06T09:56:45.625Z,1.52
2023-05-06T09:59:12.269Z,1.40
2023-05-06T10:01:38.905Z,1.40
2023-05-06T10:04:06.780Z,1.42
2023-05-06T10:06:35.631Z,1.30
2023-05-06T10:09:02.466Z,1.30
2023-05-06T10:11:31.120Z,21.20
2023-05-06T10:13:57.957Z,10.00
2023-05-06T10:16:24.657Z,9.05
2023-05-06T10:18:51.953Z,10.77
2023-05-06T10:21:22.098Z,7.80
2023-05-06T10:23:52.292Z,12.80
2023-05-06T10:26:19.772Z,11.27
2023-05-06T10:28:46.768Z,13.68
2023-05-06T10:31:16.826Z,13.95
2023-05-06T10:33:46.079Z,11.50
2023-05-06T10:36:20.313Z,9.68
2023-05-06T10:38:50.423Z,9.40
2023-05-06T10:41:17.043Z,7.35
2023-05-06T10:43:43.801Z,4.22
2023-05-06T10:46:15.095Z,3.88
2023-05-06T10:49:08.512Z,3.80
2023-05-06T10:51:38.970Z,2.72
2023-05-06T10:54:08.285Z,3.30
2023-05-06T10:56:38.756Z,1.77
2023-05-06T10:59:10.101Z,1.73
2023-05-06T11:01:40.256Z,1.90
2023-05-06T11:04:14.119Z,2.10
2023-05-06T11:06:42.336Z,2.03
2023-05-06T11:09:26.776Z,1.80
2023-05-06T11:12:08.671Z,1.90
2023-05-06T11:14:38.218Z,2.00
2023-05-06T11:17:09.289Z,1.88
2023-05-06T11:19:37.382Z,2.05
2023-05-06T11:22:05.000Z,1.92
2023-05-06T11:24:38.284Z,2.00
2023-05-06T11:27:05.607Z,2.00
2023-05-06T11:29:32.274Z,2.08
2023-05-06T11:31:59.086Z,2.03
2023-05-06T11:34:30.162Z,1.95
2023-05-06T11:36:58.878Z,1.90
2023-05-06T11:39:30.531Z,2.00
2023-05-06T11:42:02.845Z,2.00
2023-05-06T11:44:31.105Z,1.95
2023-05-06T11:46:59.004Z,2.08
2023-05-06T11:49:26.908Z,2.17
2023-05-06T11:51:54.793Z,2.15
2023-05-06T11:54:22.826Z,1.70
2023-05-06T11:56:51.379Z,1.70
2023-05-06T11:59:18.893Z,1.80
2023-05-06T12:01:46.077Z,1.77
2023-05-06T12:04:13.175Z,1.50
2023-05-06T12:06:40.144Z,1.70
2023-05-06T12:09:08.730Z,2.00
2023-05-06T12:11:35.539Z,1.70
2023-05-06T12:14:03.328Z,1.60
2023-05-06T12:16:30.009Z,1.67
2023-05-06T12:18:56.695Z,1.63
2023-05-06T12:21:24.056Z,1.52
2023-05-06T12:23:53.924Z,1.42
2023-05-06T12:26:22.872Z,1.20
2023-05-06T12:29:09.631Z,1.30
2023-05-06T12:31:36.339Z,1.30
2023-05-06T12:34:03.831Z,1.35
2023-05-06T12:36:30.678Z,1.63
2023-05-06T12:39:01.065Z,1.38
2023-05-06T12:41:44.190Z,1.30
2023-05-06T12:44:52.172Z,1.25
2023-05-06T12:47:20.773Z,1.38
2023-05-06T12:49:51.490Z,1.40
2023-05-06T12:52:19.460Z,1.27
2023-05-06T12:54:46.234Z,1.50
2023-05-06T12:57:13.118Z,1.30
2023-05-06T12:59:39.779Z,1.25
2023-05-06T13:02:06.632Z,1.23
2023-05-06T13:04:33.243Z,1.10
2023-05-06T13:07:02.450Z,1.30
2023-05-06T13:09:29.165Z,1.20
2023-05-06T13:11:55.820Z,1.20
2023-05-06T13:14:22.958Z,1.15
2023-05-06T13:16:49.703Z,1.20
2023-05-06T13:19:31.625Z,1.27
2023-05-06T13:22:00.585Z,1.10
2023-05-06T13:24:27.547Z,1.20
2023-05-06T13:26:56.001Z,1.30
2023-05-06T13:29:23.462Z,1.40
2023-05-06T13:31:50.255Z,1.30
2023-05-06T13:34:16.989Z,1.40
2023-05-06T13:36:43.882Z,1.08
2023-05-06T13:39:10.590Z,1.30
2023-05-06T13:41:37.259Z,1.38
2023-05-06T13:44:04.074Z,1.30
2023-05-06T13:46:31.365Z,1.40
2023-05-06T13:48:58.128Z,1.48
2023-05-06T13:51:29.171Z,1.48
2023-05-06T13:53:55.914Z,1.50
2023-05-06T13:56:22.567Z,1.30
2023-05-06T13:58:49.235Z,1.27
2023-05-06T14:01:15.870Z,1.20
2023-05-06T14:03:42.605Z,1.20
2023-05-06T14:06:09.240Z,1.30
2023-05-06T14:08:35.899Z,1.30
2023-05-06T14:11:02.555Z,1.20
2023-05-06T14:13:30.782Z,1.23
2023-05-06T14:15:57.597Z,1.30
2023-05-06T14:18:26.572Z,1.20
2023-05-06T14:20:53.765Z,1.17
2023-05-06T14:23:20.621Z,1.20
2023-05-06T14:25:47.281Z,1.30
2023-05-06T14:28:15.612Z,1.10
2023-05-06T14:30:42.541Z,1.10
2023-05-06T14:33:09.548Z,1.60
2023-05-06T14:35:36.245Z,1.50
2023-05-06T14:38:03.194Z,1.77
2023-05-06T14:40:30.268Z,1.30
2023-05-06T14:42:56.932Z,1.40
2023-05-06T14:45:23.570Z,1.30
2023-05-06T14:47:51.515Z,1.30
2023-05-06T14:50:18.609Z,1.40
2023-05-06T14:52:45.434Z,1.40
2023-05-06T14:55:12.491Z,1.75
2023-05-06T14:57:39.339Z,1.40
2023-05-06T15:00:09.999Z,1.30
2023-05-06T15:02:38.069Z,1.48
2023-05-06T15:05:05.102Z,1.40
2023-05-06T15:07:31.794Z,1.50
2023-05-06T15:09:58.463Z,1.33
2023-05-06T15:12:25.277Z,1.48
2023-05-06T15:14:51.937Z,1.40
2023-05-06T15:17:18.562Z,1.20
2023-05-06T15:19:45.800Z,1.40
2023-05-06T15:22:12.445Z,1.30
2023-05-06T15:24:39.104Z,1.40
2023-05-06T15:27:06.058Z,1.50
2023-05-06T15:29:32.758Z,1.40
2023-05-06T15:31:59.354Z,1.40
2023-05-06T15:34:25.995Z,1.35
2023-05-06T15:36:53.142Z,1.40
2023-05-06T15:39:19.938Z,1.40
2023-05-06T15:41:46.740Z,1.60
2023-05-06T15:46:42.645Z,1.40
2023-05-06T15:49:33.663Z,1.30
2023-05-06T15:51:59.044Z,1.50
2023-05-06T15:54:27.274Z,1.58
2023-05-06T15:56:54.025Z,1.40
2023-05-06T15:59:20.609Z,1.30
2023-05-06T16:04:17.172Z,1.20
2023-05-06T16:06:43.948Z,1.27
2023-05-06T16:09:10.606Z,1.40
2023-05-06T16:11:37.235Z,1.20
2023-05-06T16:14:03.943Z,1.30
2023-05-06T16:16:30.713Z,1.20
2023-05-06T16:18:57.480Z,2.38
2023-05-06T16:21:24.140Z,1.50
2023-05-06T16:23:50.837Z,1.30
2023-05-06T16:26:17.764Z,1.50
2023-05-06T16:28:44.551Z,1.65
2023-05-06T16:31:11.238Z,1.83
2023-05-06T16:33:37.984Z,1.80
2023-05-06T16:36:04.851Z,1.70
2023-05-06T16:38:31.543Z,1.80
2023-05-06T16:40:58.253Z,2.10
2023-05-06T16:43:24.884Z,8.98
2023-05-06T16:45:51.489Z,4.82
2023-05-06T16:48:18.210Z,4.32
2023-05-06T16:50:45.071Z,5.70
2023-05-06T16:53:11.694Z,5.00
2023-05-06T16:55:38.303Z,5.20
2023-05-06T16:58:04.992Z,4.80
2023-05-06T17:00:32.037Z,5.00
2023-05-06T17:02:58.881Z,5.15
2023-05-06T17:05:25.814Z,5.10
2023-05-06T17:07:52.566Z,4.97
2023-05-06T17:10:19.324Z,5.10
2023-05-06T17:12:45.946Z,4.70
2023-05-06T17:15:12.652Z,4.75
2023-05-06T17:17:39.913Z,4.78
2023-05-06T17:20:07.404Z,4.50
2023-05-06T17:22:34.098Z,4.40
2023-05-06T17:25:00.791Z,4.90
2023-05-06T17:27:27.537Z,5.20
2023-05-06T17:29:54.287Z,4.80
2023-05-06T17:32:21.051Z,4.60
2023-05-06T17:34:47.711Z,4.30
2023-05-06T17:37:14.348Z,4.50
2023-05-06T17:39:40.980Z,4.45
2023-05-06T17:42:08.417Z,4.50
2023-05-06T17:44:35.838Z,4.18
2023-05-06T17:47:02.448Z,4.30
2023-05-06T17:49:29.138Z,4.05
2023-05-06T17:51:57.309Z,4.20
2023-05-06T17:54:25.347Z,3.75
2023-05-06T17:56:52.940Z,4.10
2023-05-06T17:59:19.784Z,4.63
2023-05-06T18:01:46.521Z,4.10
2023-05-06T18:04:13.590Z,4.20
2023-05-06T18:06:41.563Z,4.05
2023-05-06T18:09:08.607Z,3.90
2023-05-06T18:11:35.389Z,4.10
2023-05-06T18:14:02.024Z,4.07
2023-05-06T18:16:28.814Z,4.00
2023-05-06T18:18:55.448Z,3.92
2023-05-06T18:21:22.411Z,4.03
2023-05-06T18:23:51.405Z,3.92
2023-05-06T18:26:39.524Z,3.97
2023-05-06T18:29:07.033Z,3.70
2023-05-06T18:31:33.745Z,3.80
2023-05-06T18:34:00.454Z,3.80
2023-05-06T18:36:27.123Z,3.50
2023-05-06T18:38:53.746Z,3.97
2023-05-06T18:41:21.034Z,4.13
2023-05-06T18:43:47.659Z,3.72
2023-05-06T18:46:14.358Z,3.63
2023-05-06T18:48:41.099Z,3.65
2023-05-06T18:51:15.691Z,3.83
2023-05-06T18:53:42.633Z,3.33
2023-05-06T18:56:09.428Z,3.70
2023-05-06T18:58:39.654Z,3.30
2023-05-06T19:01:07.154Z,4.18
2023-05-06T19:03:37.397Z,3.60
2023-05-06T19:06:05.077Z,3.50
2023-05-06T19:08:32.248Z,3.80
2023-05-06T19:10:59.265Z,3.50
2023-05-06T19:13:26.073Z,3.40
2023-05-06T19:15:52.757Z,3.35
2023-05-06T19:18:19.462Z,3.42
2023-05-06T19:20:46.341Z,3.45
2023-05-06T19:23:12.983Z,3.47
2023-05-06T19:25:39.768Z,3.10
2023-05-06T19:28:06.516Z,3.40
2023-05-06T19:30:34.209Z,3.38
2023-05-06T19:33:00.981Z,3.10
2023-05-06T19:35:27.869Z,3.13
2023-05-06T19:37:54.460Z,3.85
2023-05-06T19:40:21.954Z,3.30
2023-05-06T19:42:48.668Z,3.40
2023-05-06T19:45:16.769Z,3.70
2023-05-06T19:47:45.774Z,3.30
2023-05-06T19:50:14.431Z,3.38
2023-05-06T19:52:41.734Z,3.20
2023-05-06T19:55:09.612Z,2.90
2023-05-06T19:57:37.447Z,3.28
2023-05-06T20:00:09.782Z,3.53
2023-05-06T20:02:37.598Z,3.22
2023-05-06T20:05:06.314Z,3.13
2023-05-06T20:07:33.617Z,3.10
2023-05-06T20:10:00.477Z,2.92
2023-05-06T20:12:30.527Z,2.92
2023-05-06T20:14:57.195Z,3.25
2023-05-06T20:17:24.762Z,3.00
2023-05-06T20:19:52.649Z,3.38
2023-05-06T20:22:19.413Z,3.15
2023-05-06T20:24:46.511Z,3.10
2023-05-06T20:27:13.166Z,3.42
2023-05-06T20:29:39.981Z,3.30
2023-05-06T20:32:06.632Z,3.20
2023-05-06T20:34:33.475Z,3.20
2023-05-06T20:37:00.587Z,3.53
2023-05-06T20:39:27.326Z,3.20
2023-05-06T20:41:54.008Z,3.10
2023-05-06T20:44:20.835Z,3.38
2023-05-06T20:46:47.489Z,3.15
2023-05-06T20:49:14.208Z,3.00
2023-05-06T20:51:43.519Z,3.53
2023-05-06T20:54:10.319Z,3.17
2023-05-06T20:56:37.044Z,2.90
2023-05-06T20:59:03.716Z,3.30
2023-05-06T21:01:30.449Z,3.20
2023-05-06T21:04:01.575Z,3.15
2023-05-06T21:06:28.256Z,5.38
2023-05-06T21:09:00.919Z,3.15
2023-05-06T21:11:28.886Z,3.00
2023-05-06T21:13:55.740Z,3.60
2023-05-06T21:16:28.569Z,3.20
2023-05-06T21:21:23.617Z,3.30
2023-05-06T21:23:50.648Z,3.15
2023-05-06T21:26:17.738Z,3.08
2023-05-06T21:28:51.095Z,3.15
2023-05-06T21:31:21.503Z,3.08
2023-05-06T21:33:54.024Z,3.17
2023-05-06T21:36:20.746Z,3.42
2023-05-06T21:38:48.586Z,3.10
2023-05-06T21:41:15.398Z,2.97
2023-05-06T21:43:42.399Z,3.60
2023-05-06T21:46:09.152Z,3.03
2023-05-06T21:48:35.841Z,3.10
2023-05-06T21:51:05.584Z,3.00
2023-05-06T21:53:32.252Z,2.90
2023-05-06T21:55:58.976Z,2.95
2023-05-06T21:58:25.622Z,3.10
2023-05-06T22:00:52.400Z,3.17
2023-05-06T22:03:21.831Z,3.25
2023-05-06T22:05:48.428Z,3.00
2023-05-06T22:08:17.197Z,3.10
2023-05-06T22:10:43.935Z,3.20
2023-05-06T22:13:10.924Z,2.92
2023-05-06T22:15:37.703Z,3.13
2023-05-06T22:18:04.464Z,2.90
2023-05-06T22:20:37.614Z,2.60
2023-05-06T22:23:04.296Z,2.90
2023-05-06T22:25:30.946Z,3.10
2023-05-06T22:27:57.660Z,3.22
2023-05-06T22:30:24.526Z,2.92
2023-05-06T22:35:17.828Z,2.80
2023-05-06T22:37:45.243Z,3.00
2023-05-06T22:40:12.316Z,3.00
2023-05-06T22:42:39.045Z,2.83
2023-05-06T22:45:06.623Z,3.20
2023-05-06T22:47:33.332Z,2.85
2023-05-06T22:49:59.990Z,3.00
2023-05-06T22:52:26.745Z,2.95
2023-05-06T22:54:53.910Z,2.80
2023-05-06T22:57:22.832Z,2.80
2023-05-06T22:59:49.510Z,3.00
2023-05-06T23:02:16.091Z,2.60
2023-05-06T23:04:42.768Z,2.92
2023-05-06T23:07:09.457Z,2.67
2023-05-06T23:09:36.042Z,2.72
2023-05-06T23:12:02.761Z,2.88
2023-05-06T23:14:29.306Z,2.53
2023-05-06T23:16:56.381Z,3.10
2023-05-06T23:19:23.080Z,2.65
2023-05-06T23:21:49.669Z,2.60
2023-05-06T23:24:16.290Z,3.45
2023-05-06T23:26:42.841Z,2.83
2023-05-06T23:29:09.384Z,2.70
2023-05-06T23:31:36.045Z,2.80
2023-05-06T23:34:02.961Z,2.40
2023-05-06T23:36:29.522Z,2.80
2023-05-06T23:38:56.397Z,2.90
2023-05-06T23:41:23.593Z,2.60
2023-05-06T23:43:50.268Z,2.78
2023-05-06T23:46:16.933Z,2.60
2023-05-06T23:48:43.520Z,2.90
2023-05-06T23:51:10.155Z,2.80
2023-05-06T23:53:37.107Z,2.60
2023-05-06T23:56:04.014Z,2.88
2023-05-06T23:58:30.658Z,2.60
